Hlavní strana
METAR-TAF:

METAR-TAF

Letiště :

Arad, Rumunsko

zeměpisná šířka: 46-12N, zeměpisná délka: 021-24E, výška: 117 m

Aktuální stav počasí

Zpráva byla vytvořena před 41 minutami, v 08:30 UTC
Východoseverovýchodní vítr 5 kt
Teplota 4°C
Vlhkost vzduchu 81%
Tlak 1019 hPa
Viditelnost 10 km a více
Zataženo ve výšce 1400 ft

METAR: LRAR 110830Z 06005KT 9999 OVC014 04/01 Q1019

Čas: 11:11 (09:11 UTC)

Předpověď počasí

Zpráva byla vytvořena před 1 hodinou a 11 minutami, v 08:00 UTC
Předpověď platná od 11 v 09 UTC do 11 v 18 UTC
Severovýchodní vítr 6 kt
Viditelnost 10 km a více
Zataženo ve výšce 2500 ft
Dočasný
od 11 v 09 UTC do 11 v 12 UTC
Oblačno až skoro zataženo ve výšce 1000 ft
Zataženo ve výšce 2500 ft

TAF: LRAR 110800Z 1109/1118 04006KT 9999 OVC025 TEMPO 1109/1112 BKN010 OVC025

Stav a předpovědi počasí z více než 4 000 letišť (zprávy METAR a TAF).

Červené a žluté tečky na mapě představují dostupné meteorologické stanice.

Když kurzor umístíte na tečku, zobrazí se název stanice.

Pak kliknutím zobrazíte stav a předpověď počasí.

Chcete-li změnit mapu, kliknutím na zelené tlačítko se znaménkem +mapu přiblížíte, kliknutím na zelené tlačítko se znaménkem – mapu oddálíte a kliknutím na zelené šipky přejdete na sousední mapy.


METAR-TAF: